Time;durP1;ratioP1;P1;durP2;ratioP2;P2;SDS_P1;SDS_P2;PMS_P1;PMS_P2;Temp;Humidity;BMP_temperature;BMP_pressure;BME280_temperature;BME280_humidity;BME280_pressure;Samples;Min_cycle;Max_cycle;Signal;HPM_P1;HPM_P2
2023/01/30 00:00:55;;;;;;;55.85;38.58;;;5.80;92.40;;;;;;5035929;28;20026;-73
2023/01/30 00:03:22;;;;;;;57.03;36.42;;;5.70;92.30;;;;;;5032982;28;20037;-74
2023/01/30 00:05:48;;;;;;;52.70;36.30;;;5.70;92.40;;;;;;5032939;28;20057;-76
2023/01/30 00:08:14;;;;;;;49.78;34.50;;;5.70;92.40;;;;;;5038929;28;20383;-73
2023/01/30 00:10:40;;;;;;;52.50;34.58;;;5.70;92.40;;;;;;5034102;28;20036;-73
2023/01/30 00:13:05;;;;;;;48.83;34.20;;;5.70;92.60;;;;;;5033699;28;20080;-73
2023/01/30 00:15:31;;;;;;;57.28;37.75;;;5.80;92.70;;;;;;5036255;28;20040;-74
2023/01/30 00:17:57;;;;;;;54.33;35.08;;;5.80;92.70;;;;;;5040420;28;20466;-74
2023/01/30 00:20:22;;;;;;;52.95;35.42;;;5.80;92.80;;;;;;5039135;28;20143;-74
2023/01/30 00:22:48;;;;;;;52.13;34.15;;;5.80;92.60;;;;;;5037665;28;20040;-75
2023/01/30 00:25:14;;;;;;;50.00;34.97;;;5.80;92.60;;;;;;5036375;28;20035;-74
2023/01/30 00:27:39;;;;;;;51.75;33.08;;;5.80;92.60;;;;;;5036141;28;20025;-74
2023/01/30 00:30:06;;;;;;;45.30;32.25;;;5.70;92.60;;;;;;5036234;28;20631;-73
2023/01/30 00:32:32;;;;;;;52.22;34.10;;;5.70;92.60;;;;;;5037756;28;20049;-74
2023/01/30 00:34:58;;;;;;;52.00;33.95;;;5.60;92.70;;;;;;5037759;28;20017;-73
2023/01/30 00:37:24;;;;;;;51.95;33.03;;;5.60;92.80;;;;;;5031448;28;20441;-73
2023/01/30 00:39:49;;;;;;;53.65;32.40;;;5.60;93.00;;;;;;5032604;28;20368;-73
2023/01/30 00:47:44;;;;;;;48.95;32.28;;;5.80;93.20;;;;;;5030360;28;20148;-73
2023/01/30 00:50:10;;;;;;;46.97;28.77;;;5.80;93.20;;;;;;5039163;28;20028;-74
2023/01/30 00:52:36;;;;;;;44.80;29.08;;;5.90;93.20;;;;;;5038390;28;20033;-77
2023/01/30 00:55:02;;;;;;;45.55;28.23;;;6.00;93.30;;;;;;5035372;28;20044;-74
2023/01/30 00:57:28;;;;;;;39.50;25.02;;;6.00;93.30;;;;;;5036944;28;20524;-73
2023/01/30 00:59:53;;;;;;;39.03;25.08;;;6.10;93.40;;;;;;5042179;28;20120;-76
2023/01/30 01:02:19;;;;;;;40.40;24.40;;;6.20;93.60;;;;;;5041223;28;20025;-74
2023/01/30 01:04:45;;;;;;;40.20;24.70;;;6.30;93.50;;;;;;5037820;28;20009;-74
2023/01/30 01:07:14;;;;;;;38.28;24.52;;;6.30;93.40;;;;;;5037841;28;20041;-75
2023/01/30 01:09:40;;;;;;;36.97;23.65;;;6.40;93.40;;;;;;5036843;28;20039;-74
2023/01/30 01:12:06;;;;;;;44.13;24.45;;;6.40;93.30;;;;;;5040093;28;20118;-74
2023/01/30 01:14:33;;;;;;;36.80;22.55;;;6.50;93.40;;;;;;5036668;28;20402;-77
2023/01/30 01:16:59;;;;;;;37.17;21.25;;;6.60;93.30;;;;;;5040138;28;20036;-74
2023/01/30 01:19:24;;;;;;;33.40;20.63;;;6.60;93.20;;;;;;5041249;28;20074;-74
2023/01/30 01:21:50;;;;;;;30.98;19.92;;;6.60;93.10;;;;;;5039316;28;20131;-76
2023/01/30 01:24:16;;;;;;;32.13;18.70;;;6.60;93.00;;;;;;5036315;28;20029;-74
2023/01/30 01:26:43;;;;;;;29.85;17.75;;;6.70;92.90;;;;;;5041632;28;20029;-74
2023/01/30 01:29:13;;;;;;;27.45;17.63;;;6.70;92.70;;;;;;5038111;28;20025;-74
2023/01/30 01:31:39;;;;;;;31.02;17.10;;;6.70;92.60;;;;;;5042758;28;20029;-76
2023/01/30 01:34:05;;;;;;;30.23;17.00;;;6.80;92.50;;;;;;5041048;28;20476;-77
2023/01/30 01:36:30;;;;;;;26.98;16.02;;;6.80;92.30;;;;;;5037116;28;20048;-77
2023/01/30 01:38:56;;;;;;;30.13;17.67;;;6.90;92.10;;;;;;5040321;28;20079;-75
2023/01/30 01:41:22;;;;;;;26.75;17.85;;;6.90;92.00;;;;;;5041125;28;20183;-74
2023/01/30 01:44:26;;;;;;;27.77;16.15;;;6.90;91.90;;;;;;5040533;28;20032;-74
2023/01/30 01:46:57;;;;;;;29.23;14.95;;;6.90;91.80;;;;;;4979396;28;20031;-74
2023/01/30 01:49:27;;;;;;;29.50;14.27;;;6.90;91.70;;;;;;4977997;28;20083;-74
2023/01/30 01:52:08;;;;;;;23.58;13.82;;;7.00;91.60;;;;;;5000303;28;20048;-74
2023/01/30 01:54:51;;;;;;;24.67;13.68;;;7.00;91.60;;;;;;5016640;28;20018;-74
2023/01/30 01:57:25;;;;;;;27.95;13.93;;;7.00;91.50;;;;;;5018908;28;20148;-74
2023/01/30 02:00:16;;;;;;;28.33;14.32;;;7.00;91.40;;;;;;5016619;28;20025;-74
2023/01/30 02:02:45;;;;;;;23.52;12.65;;;7.10;91.30;;;;;;5020053;28;20378;-74
2023/01/30 02:05:13;;;;;;;23.23;12.07;;;7.10;91.30;;;;;;5015800;28;20396;-75
2023/01/30 02:08:07;;;;;;;21.30;11.75;;;7.10;91.20;;;;;;5021332;28;20034;-75
2023/01/30 02:11:03;;;;;;;19.40;11.20;;;7.10;91.10;;;;;;5019493;28;20029;-74
2023/01/30 02:13:28;;;;;;;;;;;7.10;91.00;;;;;;5035630;28;20417;-74
2023/01/30 02:15:59;;;;;;;20.85;10.55;;;7.10;91.10;;;;;;5020195;28;19913;-75
2023/01/30 02:18:27;;;;;;;15.90;9.98;;;7.10;91.00;;;;;;5025232;28;20366;-74
2023/01/30 02:21:36;;;;;;;19.73;10.82;;;7.20;90.90;;;;;;5023431;28;20444;-74
2023/01/30 02:24:28;;;;;;;17.42;10.15;;;7.20;90.70;;;;;;5023177;28;20365;-74
2023/01/30 02:27:50;;;;;;;20.23;10.02;;;7.20;90.80;;;;;;5016858;28;20049;-75
2023/01/30 02:30:53;;;;;;;17.90;10.00;;;7.20;90.70;;;;;;5020994;28;20424;-73
2023/01/30 02:33:46;;;;;;;19.30;9.98;;;7.20;90.50;;;;;;5023953;28;20033;-73
2023/01/30 02:36:14;;;;;;;16.33;9.82;;;7.10;90.40;;;;;;5019903;28;20373;-73
2023/01/30 02:39:13;;;;;;;20.60;10.18;;;7.10;90.50;;;;;;5020784;28;20021;-74
2023/01/30 02:42:18;;;;;;;19.75;10.60;;;7.00;90.50;;;;;;5021300;28;20037;-73
2023/01/30 02:45:14;;;;;;;16.95;9.55;;;7.00;90.60;;;;;;5023004;28;20013;-73
2023/01/30 02:47:48;;;;;;;20.52;10.27;;;6.90;90.60;;;;;;5020395;28;20029;-73
2023/01/30 02:50:33;;;;;;;17.27;8.27;;;6.80;90.90;;;;;;5041907;28;20122;-73
2023/01/30 02:52:59;;;;;;;18.55;8.40;;;6.90;91.10;;;;;;5037544;28;20025;-74
2023/01/30 02:55:28;;;;;;;16.70;9.25;;;6.80;91.20;;;;;;5038301;28;20369;-73
2023/01/30 02:57:54;;;;;;;17.95;8.43;;;6.90;91.30;;;;;;5041102;28;20372;-73
2023/01/30 03:00:51;;;;;;;19.95;9.43;;;6.90;91.30;;;;;;5040563;28;20025;-75
2023/01/30 03:03:37;;;;;;;20.92;8.93;;;7.00;91.40;;;;;;5044181;28;20127;-74
2023/01/30 03:06:41;;;;;;;22.10;8.30;;;7.00;91.40;;;;;;5036078;28;20420;-75
2023/01/30 03:09:13;;;;;;;19.45;8.35;;;7.10;91.50;;;;;;5043089;28;20442;-75
2023/01/30 03:12:03;;;;;;;16.75;7.65;;;7.10;91.50;;;;;;5038281;28;20052;-74
2023/01/30 03:14:36;;;;;;;21.33;8.05;;;7.10;91.50;;;;;;5039426;28;20029;-73
2023/01/30 03:17:04;;;;;;;19.65;7.35;;;7.20;91.30;;;;;;5036756;28;20086;-72
2023/01/30 03:19:30;;;;;;;18.30;7.82;;;7.30;91.30;;;;;;5043047;28;20028;-74
2023/01/30 03:21:56;;;;;;;17.33;6.75;;;7.30;91.20;;;;;;5039063;28;20425;-74
2023/01/30 03:24:22;;;;;;;18.55;6.93;;;7.40;91.30;;;;;;5039294;28;20036;-73
2023/01/30 03:26:54;;;;;;;13.25;6.00;;;7.40;91.30;;;;;;5042174;28;20434;-73
2023/01/30 03:29:20;;;;;;;17.13;6.72;;;7.40;91.50;;;;;;5040321;28;20433;-74
2023/01/30 03:31:45;;;;;;;17.17;7.15;;;7.40;91.30;;;;;;5040386;28;20346;-73
2023/01/30 03:34:11;;;;;;;16.30;6.88;;;7.30;91.60;;;;;;5037773;28;20029;-75
2023/01/30 03:36:37;;;;;;;15.00;5.88;;;7.30;91.70;;;;;;5038908;28;20059;-73
2023/01/30 03:39:03;;;;;;;14.52;6.20;;;7.30;91.80;;;;;;5043369;28;20059;-73
2023/01/30 03:41:28;;;;;;;18.55;7.30;;;7.30;91.80;;;;;;5041736;28;20037;-73
2023/01/30 03:43:54;;;;;;;13.93;6.90;;;7.30;92.00;;;;;;5038210;28;20029;-74
2023/01/30 03:46:20;;;;;;;16.35;6.80;;;7.30;92.00;;;;;;5038976;28;20036;-76
2023/01/30 03:48:45;;;;;;;17.15;7.82;;;7.30;92.10;;;;;;5042611;28;20674;-75
2023/01/30 03:51:11;;;;;;;17.60;7.72;;;7.30;92.10;;;;;;5041247;28;20045;-76
2023/01/30 03:53:36;;;;;;;18.58;7.45;;;7.40;92.20;;;;;;5041427;28;20059;-74
2023/01/30 03:56:02;;;;;;;15.02;7.65;;;7.30;92.10;;;;;;5040608;28;20025;-74
2023/01/30 03:58:28;;;;;;;13.98;7.45;;;7.40;92.00;;;;;;5039297;28;20036;-74
2023/01/30 04:00:56;;;;;;;17.23;7.90;;;7.40;92.00;;;;;;5039416;28;20035;-74
2023/01/30 04:03:22;;;;;;;18.20;7.90;;;7.40;91.90;;;;;;5040518;28;20050;-74
2023/01/30 04:05:48;;;;;;;16.65;7.93;;;7.40;91.80;;;;;;5037107;28;20353;-74
2023/01/30 04:08:13;;;;;;;18.65;8.27;;;7.50;91.70;;;;;;5044262;28;20072;-74
2023/01/30 04:10:39;;;;;;;16.42;8.20;;;7.50;91.40;;;;;;5035627;28;20018;-74
2023/01/30 04:13:05;;;;;;;14.93;8.30;;;7.50;91.40;;;;;;5039781;28;20052;-74
2023/01/30 04:15:30;;;;;;;16.00;7.78;;;7.50;91.20;;;;;;5037670;28;20029;-75
2023/01/30 04:17:56;;;;;;;13.40;7.55;;;7.50;90.90;;;;;;5039658;28;20047;-75
2023/01/30 04:20:22;;;;;;;13.57;6.93;;;7.60;90.80;;;;;;5041821;28;20064;-74
2023/01/30 04:22:47;;;;;;;13.77;7.00;;;7.60;90.70;;;;;;5045016;28;20086;-76
2023/01/30 04:25:13;;;;;;;16.45;7.70;;;7.60;90.50;;;;;;5041512;28;20019;-73
2023/01/30 04:27:39;;;;;;;13.15;6.85;;;7.60;90.40;;;;;;5040689;28;20037;-73
2023/01/30 04:30:05;;;;;;;16.35;6.68;;;7.60;90.30;;;;;;5041540;28;20433;-76
2023/01/30 04:32:31;;;;;;;14.10;6.45;;;7.60;90.10;;;;;;5038869;28;20068;-73
2023/01/30 04:34:56;;;;;;;17.27;6.53;;;7.70;90.00;;;;;;5037980;28;20056;-73
2023/01/30 04:37:22;;;;;;;14.68;6.20;;;7.70;89.90;;;;;;5039521;28;20040;-74
2023/01/30 04:39:48;;;;;;;14.05;5.85;;;7.80;89.70;;;;;;5042756;28;20029;-74
2023/01/30 04:42:13;;;;;;;15.32;5.90;;;7.80;89.70;;;;;;5038426;28;20040;-74
2023/01/30 04:44:39;;;;;;;14.82;5.93;;;7.70;89.70;;;;;;5036497;28;20035;-73
2023/01/30 04:47:05;;;;;;;12.18;6.20;;;7.80;89.50;;;;;;5039126;28;20029;-73
2023/01/30 04:49:30;;;;;;;14.32;6.18;;;7.80;89.50;;;;;;5038092;28;20415;-75
2023/01/30 04:51:56;;;;;;;11.05;5.88;;;7.80;89.40;;;;;;5040386;28;20134;-73
2023/01/30 04:54:22;;;;;;;17.02;5.97;;;7.80;89.30;;;;;;5041985;28;20025;-73
2023/01/30 04:56:47;;;;;;;11.75;5.75;;;7.80;89.20;;;;;;5038222;28;20377;-73
2023/01/30 04:59:13;;;;;;;13.43;6.03;;;7.80;89.20;;;;;;5036731;28;20558;-72
2023/01/30 05:01:39;;;;;;;12.82;5.75;;;7.80;89.30;;;;;;5039185;28;20029;-72
2023/01/30 05:04:05;;;;;;;14.50;6.50;;;7.80;89.20;;;;;;5038179;28;20518;-73
2023/01/30 05:06:33;;;;;;;16.33;7.05;;;7.90;89.10;;;;;;5040758;28;21785;-73
2023/01/30 05:08:59;;;;;;;12.45;6.60;;;7.90;89.00;;;;;;5037538;28;20384;-74
2023/01/30 05:11:26;;;;;;;14.13;6.25;;;7.90;89.00;;;;;;5038377;28;20040;-73
2023/01/30 05:13:52;;;;;;;16.00;6.32;;;7.90;88.90;;;;;;5040380;28;20568;-74
2023/01/30 05:16:18;;;;;;;11.77;6.38;;;7.90;89.00;;;;;;5036368;28;20026;-76
2023/01/30 05:18:45;;;;;;;14.02;7.50;;;7.90;89.10;;;;;;5038652;28;20036;-73
2023/01/30 05:21:12;;;;;;;15.60;6.90;;;7.90;89.10;;;;;;5040318;28;20029;-73
2023/01/30 05:23:38;;;;;;;13.88;7.47;;;7.90;89.10;;;;;;5040461;28;20789;-73
2023/01/30 05:26:04;;;;;;;12.82;7.00;;;7.90;89.00;;;;;;5039200;28;20087;-74
2023/01/30 05:28:30;;;;;;;12.48;6.78;;;8.00;89.00;;;;;;5038282;28;20441;-73
2023/01/30 05:31:08;;;;;;;14.25;5.72;;;8.00;89.00;;;;;;5041293;28;20045;-73
2023/01/30 05:33:34;;;;;;;12.75;6.18;;;8.00;88.90;;;;;;5042405;28;20029;-75
2023/01/30 05:35:59;;;;;;;11.90;5.18;;;8.10;88.70;;;;;;5037347;28;20079;-73
2023/01/30 05:38:25;;;;;;;13.23;6.45;;;8.10;88.70;;;;;;5042381;28;20106;-74
2023/01/30 05:41:02;;;;;;;13.40;6.50;;;8.10;88.70;;;;;;5037278;28;20033;-73
2023/01/30 05:43:29;;;;;;;13.18;6.72;;;8.10;88.70;;;;;;5034517;28;20458;-72
2023/01/30 05:45:57;;;;;;;16.33;7.03;;;8.10;88.70;;;;;;5034436;28;20416;-73
2023/01/30 05:48:23;;;;;;;11.88;6.00;;;8.10;88.60;;;;;;5031200;28;20037;-76
2023/01/30 05:50:50;;;;;;;10.57;6.53;;;8.20;88.60;;;;;;5036399;28;20128;-74
2023/01/30 05:53:17;;;;;;;13.82;6.03;;;8.20;88.50;;;;;;5036719;28;20137;-74
2023/01/30 05:55:42;;;;;;;15.88;6.95;;;8.20;88.50;;;;;;5042963;28;20071;-73
2023/01/30 05:58:09;;;;;;;14.07;6.97;;;8.20;88.60;;;;;;5044827;28;20654;-73
2023/01/30 06:00:34;;;;;;;16.95;7.63;;;8.20;88.60;;;;;;5034907;28;20029;-73
2023/01/30 06:03:00;;;;;;;12.70;6.82;;;8.20;88.60;;;;;;5040367;28;20033;-73
2023/01/30 06:05:26;;;;;;;13.65;6.70;;;8.20;88.50;;;;;;5042927;28;20037;-75
2023/01/30 06:07:51;;;;;;;15.73;7.03;;;8.20;88.50;;;;;;5038290;28;20024;-73
2023/01/30 06:10:17;;;;;;;18.83;7.38;;;8.20;88.50;;;;;;5037425;28;20025;-76
2023/01/30 06:12:43;;;;;;;15.00;7.22;;;8.30;88.40;;;;;;5041649;28;20124;-73
2023/01/30 06:15:09;;;;;;;14.70;7.38;;;8.30;88.50;;;;;;5042626;28;20032;-73
2023/01/30 06:17:35;;;;;;;14.55;6.30;;;8.20;88.60;;;;;;5035702;28;20470;-73
2023/01/30 06:20:00;;;;;;;14.93;6.03;;;8.30;88.60;;;;;;5033025;28;20030;-75
2023/01/30 06:22:26;;;;;;;12.60;6.50;;;8.30;88.60;;;;;;5037265;28;20029;-72
2023/01/30 06:24:51;;;;;;;13.57;6.00;;;8.20;88.60;;;;;;5038600;28;20064;-73
2023/01/30 06:27:18;;;;;;;14.90;7.10;;;8.30;88.70;;;;;;5037392;28;20449;-74
2023/01/30 06:29:43;;;;;;;14.88;7.22;;;8.30;88.80;;;;;;5045437;28;20192;-74
2023/01/30 06:32:09;;;;;;;15.40;6.85;;;8.30;88.80;;;;;;5045700;28;20060;-74
2023/01/30 06:34:35;;;;;;;16.95;7.28;;;8.30;88.80;;;;;;5042356;28;20532;-73
2023/01/30 06:37:01;;;;;;;16.33;7.28;;;8.30;88.60;;;;;;5044094;28;20025;-74
2023/01/30 06:39:27;;;;;;;15.45;7.30;;;8.30;88.70;;;;;;5037263;28;20108;-76
2023/01/30 06:41:52;;;;;;;18.50;6.97;;;8.30;88.70;;;;;;5036139;28;20090;-74
2023/01/30 06:44:18;;;;;;;17.50;6.95;;;8.30;88.90;;;;;;5045252;28;20074;-77
2023/01/30 06:46:43;;;;;;;15.55;7.60;;;8.30;88.90;;;;;;5044194;28;20037;-75
2023/01/30 06:49:09;;;;;;;16.08;7.53;;;8.20;88.90;;;;;;5038758;28;20051;-76
2023/01/30 06:51:35;;;;;;;17.88;7.43;;;8.20;88.80;;;;;;5046569;28;20477;-74
2023/01/30 06:54:00;;;;;;;18.10;7.35;;;8.20;88.90;;;;;;5045328;28;20431;-76
2023/01/30 06:56:26;;;;;;;16.70;6.40;;;8.20;88.90;;;;;;5037667;28;20167;-75
2023/01/30 06:58:52;;;;;;;16.25;7.40;;;8.20;88.80;;;;;;5044698;28;20038;-73
2023/01/30 07:01:18;;;;;;;16.70;7.32;;;8.10;88.90;;;;;;5036384;28;20135;-73
2023/01/30 07:03:44;;;;;;;14.45;6.50;;;8.10;88.90;;;;;;5039866;28;20079;-73
2023/01/30 07:06:09;;;;;;;17.98;6.55;;;8.10;88.80;;;;;;5038604;28;20393;-74
2023/01/30 07:08:35;;;;;;;18.90;8.00;;;8.10;88.90;;;;;;5044222;28;20060;-75
2023/01/30 07:11:03;;;;;;;15.35;7.40;;;8.10;89.00;;;;;;5041272;28;20435;-75
2023/01/30 07:13:28;;;;;;;16.10;7.30;;;8.10;89.00;;;;;;5042120;28;20428;-74
2023/01/30 07:15:54;;;;;;;19.45;7.22;;;8.00;88.90;;;;;;5045712;28;20028;-75
2023/01/30 07:18:20;;;;;;;14.07;6.25;;;8.00;88.90;;;;;;5036793;28;20017;-73
2023/01/30 07:20:47;;;;;;;17.92;6.60;;;8.00;88.80;;;;;;5041317;28;20041;-75
2023/01/30 07:23:12;;;;;;;19.00;7.03;;;7.90;88.70;;;;;;5041967;28;20017;-74
2023/01/30 07:25:38;;;;;;;19.40;6.75;;;7.90;88.50;;;;;;5033042;28;20095;-73
2023/01/30 07:28:04;;;;;;;18.02;6.55;;;7.80;88.40;;;;;;5041129;28;20084;-74
2023/01/30 07:30:32;;;;;;;16.48;5.72;;;7.80;88.00;;;;;;5037445;28;20033;-74
2023/01/30 07:32:59;;;;;;;18.63;6.68;;;7.80;87.40;;;;;;5034728;28;20036;-74
2023/01/30 07:35:26;;;;;;;17.95;6.10;;;7.70;86.90;;;;;;5043287;28;20017;-76
2023/01/30 07:37:52;;;;;;;16.67;6.07;;;7.70;86.60;;;;;;5046001;28;20028;-73
2023/01/30 07:40:19;;;;;;;19.65;7.57;;;7.70;86.60;;;;;;5045264;28;20496;-76
2023/01/30 07:43:02;;;;;;;20.83;7.28;;;7.70;86.60;;;;;;5045303;28;20113;-74
2023/01/30 07:45:35;;;;;;;18.42;6.88;;;7.70;86.50;;;;;;5041839;28;20053;-74
2023/01/30 07:48:00;;;;;;;18.70;6.75;;;7.70;86.40;;;;;;5041795;28;20045;-77
2023/01/30 07:50:26;;;;;;;16.48;6.10;;;7.70;86.30;;;;;;5036243;28;20078;-74
2023/01/30 07:52:52;;;;;;;15.85;5.80;;;7.70;86.40;;;;;;5040170;28;20082;-74
2023/01/30 07:55:18;;;;;;;17.90;5.85;;;7.70;86.30;;;;;;5042377;28;20010;-76
2023/01/30 07:57:44;;;;;;;20.25;5.90;;;7.70;85.60;;;;;;5042019;28;20075;-75
2023/01/30 08:00:11;;;;;;;16.80;5.63;;;7.80;85.20;;;;;;5042203;28;20029;-74
2023/01/30 08:02:36;;;;;;;15.40;5.20;;;7.70;84.90;;;;;;5041008;28;20103;-75
2023/01/30 08:05:02;;;;;;;17.45;5.00;;;7.70;84.40;;;;;;5038988;28;20064;-74
2023/01/30 08:07:28;;;;;;;17.88;5.38;;;7.70;84.00;;;;;;5043598;28;20028;-73
2023/01/30 08:09:53;;;;;;;20.98;5.53;;;7.60;84.10;;;;;;5042669;28;20044;-73
2023/01/30 08:12:19;;;;;;;17.13;5.38;;;7.60;83.80;;;;;;5040332;28;20483;-74
2023/01/30 08:14:44;;;;;;;15.73;5.20;;;7.60;83.70;;;;;;5038471;28;20025;-74
2023/01/30 08:17:10;;;;;;;15.57;4.70;;;7.60;83.50;;;;;;5039211;28;20393;-76
2023/01/30 08:19:36;;;;;;;19.17;5.80;;;7.60;83.50;;;;;;5044517;28;20354;-75
2023/01/30 08:22:01;;;;;;;18.33;5.55;;;7.50;83.10;;;;;;5040345;28;20060;-75
2023/01/30 08:24:27;;;;;;;14.23;4.80;;;7.60;83.10;;;;;;5041505;28;20032;-75
2023/01/30 08:26:53;;;;;;;15.77;5.40;;;7.60;83.10;;;;;;5042266;28;20168;-77
2023/01/30 08:29:18;;;;;;;19.50;5.45;;;7.50;83.10;;;;;;5039934;28;20037;-77
2023/01/30 08:31:44;;;;;;;16.40;4.88;;;7.50;83.10;;;;;;5039627;28;20107;-76
2023/01/30 08:34:09;;;;;;;18.52;5.13;;;7.50;83.10;;;;;;5042304;28;20303;-76
2023/01/30 08:36:35;;;;;;;18.38;5.25;;;7.40;82.90;;;;;;5036747;28;20040;-75
2023/01/30 08:39:01;;;;;;;22.33;5.25;;;7.40;82.60;;;;;;5044387;28;20340;-74
2023/01/30 08:41:27;;;;;;;16.33;5.25;;;7.50;82.60;;;;;;5042491;28;20029;-74
2023/01/30 08:43:53;;;;;;;21.63;5.55;;;7.40;82.30;;;;;;5042555;28;20025;-73
2023/01/30 08:46:20;;;;;;;18.95;6.30;;;7.50;82.10;;;;;;5036021;28;20444;-75
2023/01/30 08:48:47;;;;;;;20.15;5.70;;;7.40;82.00;;;;;;5040901;28;20037;-73
2023/01/30 08:51:13;;;;;;;13.15;4.70;;;7.50;81.60;;;;;;5041973;28;20040;-74
2023/01/30 08:53:39;;;;;;;21.85;4.63;;;7.50;81.10;;;;;;5042009;28;20047;-74
2023/01/30 08:56:05;;;;;;;14.88;4.45;;;7.60;80.80;;;;;;5041842;28;20107;-75
2023/01/30 08:58:30;;;;;;;16.25;4.20;;;7.60;80.50;;;;;;5042240;28;20025;-76
2023/01/30 09:00:56;;;;;;;17.35;4.15;;;7.70;79.80;;;;;;5041131;28;20037;-76
2023/01/30 09:03:22;;;;;;;17.98;4.15;;;7.80;79.30;;;;;;5043164;28;20021;-76
2023/01/30 09:05:54;;;;;;;17.30;4.43;;;7.80;78.50;;;;;;5044115;28;20029;-75
2023/01/30 09:08:21;;;;;;;16.90;3.83;;;7.90;78.60;;;;;;5041787;28;20017;-75
2023/01/30 09:10:46;;;;;;;15.45;4.28;;;7.90;77.70;;;;;;5037069;28;20033;-75
2023/01/30 09:13:12;;;;;;;20.52;3.97;;;8.00;77.60;;;;;;5037861;28;20070;-74
2023/01/30 09:15:41;;;;;;;20.20;5.75;;;8.10;77.20;;;;;;5034278;28;20441;-74
2023/01/30 09:18:06;;;;;;;20.75;4.85;;;8.10;75.90;;;;;;5038265;28;20025;-73
2023/01/30 09:20:32;;;;;;;16.70;5.05;;;8.10;76.20;;;;;;5039768;28;20393;-75
2023/01/30 09:22:58;;;;;;;14.25;3.97;;;8.10;75.70;;;;;;5048318;28;20025;-74
2023/01/30 09:25:24;;;;;;;15.68;3.63;;;8.10;74.80;;;;;;5041898;28;20024;-73
2023/01/30 09:27:50;;;;;;;17.52;3.72;;;8.20;74.30;;;;;;5047543;28;20021;-74
2023/01/30 09:30:17;;;;;;;13.68;3.47;;;8.20;73.30;;;;;;5046719;28;20496;-76
2023/01/30 09:32:42;;;;;;;22.17;4.45;;;8.30;73.80;;;;;;5042688;28;20124;-74
2023/01/30 09:35:08;;;;;;;19.92;4.05;;;8.30;73.10;;;;;;5043522;28;20099;-74
2023/01/30 09:37:35;;;;;;;19.17;3.83;;;8.30;72.90;;;;;;5046766;28;20052;-74
2023/01/30 09:40:01;;;;;;;17.35;3.60;;;8.50;72.70;;;;;;5045706;28;20031;-75
2023/01/30 09:42:52;;;;;;;18.63;4.65;;;8.60;72.50;;;;;;5046901;28;20528;-73
2023/01/30 09:45:40;;;;;;;18.98;3.83;;;8.60;72.60;;;;;;5041773;28;20481;-77
2023/01/30 09:48:11;;;;;;;13.98;3.30;;;8.60;72.50;;;;;;5037139;28;20042;-76
2023/01/30 09:50:49;;;;;;;17.77;4.35;;;8.60;71.70;;;;;;5042397;28;20469;-74
2023/01/30 09:53:23;;;;;;;17.73;4.13;;;8.60;71.90;;;;;;5043019;28;20043;-76
2023/01/30 09:55:49;;;;;;;22.02;4.57;;;8.70;71.90;;;;;;5046571;28;20043;-77
2023/01/30 09:58:21;;;;;;;16.70;3.78;;;8.70;72.10;;;;;;5044065;28;20028;-75
2023/01/30 10:00:50;;;;;;;18.98;3.58;;;8.80;71.80;;;;;;5044517;28;20040;-77
2023/01/30 10:03:44;;;;;;;20.13;4.72;;;8.70;70.90;;;;;;5044703;28;20023;-76
2023/01/30 10:06:13;;;;;;;15.32;3.40;;;8.70;71.80;;;;;;5034589;28;20055;-77
2023/01/30 10:08:57;;;;;;;18.73;3.78;;;8.80;71.20;;;;;;5044404;28;20052;-78
2023/01/30 10:11:41;;;;;;;18.52;4.50;;;8.90;70.70;;;;;;5045795;28;20041;-78
2023/01/30 10:14:35;;;;;;;19.45;3.70;;;9.00;70.40;;;;;;5038100;28;20064;-78
2023/01/30 10:17:08;;;;;;;18.70;3.90;;;9.00;70.30;;;;;;5039858;28;20123;-77
2023/01/30 10:20:09;;;;;;;16.95;3.67;;;9.00;70.60;;;;;;5043891;28;20024;-77
2023/01/30 10:23:00;;;;;;;19.38;3.67;;;9.00;70.90;;;;;;5035903;28;20048;-75
2023/01/30 10:25:32;;;;;;;17.77;3.75;;;9.00;70.30;;;;;;5037268;28;20159;-76
2023/01/30 10:28:17;;;;;;;15.20;4.43;;;9.00;70.10;;;;;;5044122;28;20025;-75
2023/01/30 10:30:49;;;;;;;11.15;3.00;;;8.90;70.10;;;;;;5044401;28;20051;-76
2023/01/30 10:33:23;;;;;;;14.25;3.80;;;9.00;70.20;;;;;;5039106;28;20465;-77
2023/01/30 10:36:09;;;;;;;20.30;3.58;;;9.00;70.50;;;;;;5047160;28;20025;-76
2023/01/30 10:38:39;;;;;;;19.67;5.25;;;9.10;71.00;;;;;;5045714;28;20017;-76
2023/01/30 10:41:24;;;;;;;18.80;4.22;;;9.10;70.20;;;;;;5042523;28;20037;-75
2023/01/30 10:44:11;;;;;;;16.48;4.03;;;9.10;70.80;;;;;;5034703;28;20420;-77
2023/01/30 10:47:18;;;;;;;16.80;3.33;;;9.10;70.60;;;;;;5039366;28;20037;-77
2023/01/30 10:49:51;;;;;;;21.20;4.28;;;9.00;70.80;;;;;;5043705;28;20037;-77
2023/01/30 10:52:32;;;;;;;16.60;4.40;;;9.10;70.80;;;;;;5043469;28;20027;-75
2023/01/30 10:55:12;;;;;;;16.58;4.10;;;9.20;70.80;;;;;;5040595;28;20057;-77
2023/01/30 10:58:14;;;;;;;15.63;4.32;;;9.10;70.50;;;;;;5044504;28;20040;-77
2023/01/30 11:01:00;;;;;;;14.88;3.45;;;9.10;70.70;;;;;;4976420;28;20075;-76
2023/01/30 11:03:29;;;;;;;17.67;4.20;;;9.10;70.40;;;;;;5037555;28;20025;-75
2023/01/30 11:06:00;;;;;;;19.05;3.60;;;9.10;70.70;;;;;;5041808;28;20038;-76
2023/01/30 11:08:32;;;;;;;17.67;3.88;;;9.10;70.50;;;;;;5042401;28;20361;-74
2023/01/30 11:10:58;;;;;;;14.73;3.38;;;9.10;69.90;;;;;;5041209;28;20043;-74
2023/01/30 11:13:29;;;;;;;19.92;4.07;;;9.10;69.60;;;;;;5041891;28;20680;-74
2023/01/30 11:16:07;;;;;;;16.77;4.80;;;9.20;70.00;;;;;;5042990;28;20381;-75
2023/01/30 11:18:42;;;;;;;17.02;3.85;;;9.30;70.30;;;;;;5041332;28;20021;-76
2023/01/30 11:21:41;;;;;;;16.23;3.58;;;9.50;70.40;;;;;;5043924;28;20036;-75
2023/01/30 11:24:44;;;;;;;15.48;3.42;;;9.40;69.00;;;;;;5040974;28;20119;-75
2023/01/30 11:27:30;;;;;;;17.20;3.83;;;9.40;68.40;;;;;;5043747;28;20051;-74
2023/01/30 11:30:20;;;;;;;17.13;4.05;;;9.40;68.80;;;;;;5035696;28;20778;-75
2023/01/30 11:32:48;;;;;;;14.95;3.55;;;9.50;69.40;;;;;;5038727;28;20037;-75
2023/01/30 11:35:16;;;;;;;16.63;3.60;;;9.40;69.20;;;;;;5040666;28;20032;-75
2023/01/30 11:37:43;;;;;;;18.40;3.78;;;9.40;69.00;;;;;;5031978;28;20172;-76
2023/01/30 11:40:22;;;;;;;19.70;5.60;;;9.40;68.90;;;;;;5032432;28;20035;-76
2023/01/30 11:42:51;;;;;;;27.83;3.90;;;9.40;69.60;;;;;;5036321;28;20056;-76
2023/01/30 11:45:24;;;;;;;17.23;3.58;;;9.50;70.00;;;;;;5032759;28;20029;-76
2023/01/30 11:47:55;;;;;;;15.68;4.03;;;9.60;69.80;;;;;;5041449;28;20052;-74
2023/01/30 11:50:25;;;;;;;20.02;4.10;;;9.40;68.90;;;;;;5029810;28;20029;-75
2023/01/30 11:52:51;;;;;;;14.57;3.40;;;9.40;69.30;;;;;;5030269;28;20071;-75
2023/01/30 11:55:19;;;;;;;21.50;4.07;;;9.30;69.00;;;;;;5031466;28;20432;-75
2023/01/30 11:57:57;;;;;;;18.13;3.95;;;9.10;68.90;;;;;;5030495;28;20034;-76
2023/01/30 12:00:39;;;;;;;14.82;4.15;;;9.10;68.90;;;;;;5028593;28;20018;-75
2023/01/30 12:03:10;;;;;;;13.20;3.97;;;9.10;69.00;;;;;;5034230;28;20132;-75
2023/01/30 12:05:41;;;;;;;17.38;3.42;;;9.30;69.20;;;;;;5033596;28;20108;-76
2023/01/30 12:08:21;;;;;;;26.63;4.75;;;9.20;69.30;;;;;;5030768;28;20033;-76
2023/01/30 12:10:52;;;;;;;17.33;4.55;;;9.20;68.80;;;;;;5030724;28;20067;-74
2023/01/30 12:13:40;;;;;;;19.40;4.78;;;9.20;69.10;;;;;;5031546;28;20023;-76
2023/01/30 12:16:25;;;;;;;15.48;3.88;;;9.40;69.50;;;;;;5032026;28;20362;-77
2023/01/30 12:19:02;;;;;;;13.32;4.03;;;9.40;69.60;;;;;;5031397;28;20030;-77
2023/01/30 12:21:51;;;;;;;20.23;3.78;;;9.40;69.20;;;;;;5031139;28;20037;-78
2023/01/30 12:24:31;;;;;;;14.55;3.80;;;9.40;69.30;;;;;;5030542;28;20029;-75
2023/01/30 12:27:12;;;;;;;16.48;3.97;;;9.40;69.00;;;;;;5030879;28;20087;-76
2023/01/30 12:29:58;;;;;;;16.48;5.18;;;9.50;69.60;;;;;;5031042;28;20025;-75
2023/01/30 12:32:27;;;;;;;14.57;4.15;;;9.60;69.10;;;;;;5033795;28;20532;-75
2023/01/30 12:34:53;;;;;;;15.27;3.42;;;9.30;68.50;;;;;;5041860;28;20052;-76
2023/01/30 12:37:38;;;;;;;17.85;3.92;;;9.40;68.00;;;;;;5044309;28;20063;-76
2023/01/30 12:40:24;;;;;;;14.00;3.90;;;9.40;68.20;;;;;;5043437;28;20055;-76
2023/01/30 12:42:59;;;;;;;21.08;4.10;;;9.60;69.30;;;;;;5042026;28;20158;-76
2023/01/30 12:45:32;;;;;;;16.23;4.22;;;9.60;68.60;;;;;;5043251;28;20032;-75
2023/01/30 12:48:12;;;;;;;19.80;4.00;;;9.50;69.10;;;;;;5034692;28;20049;-75
2023/01/30 12:50:50;;;;;;;22.08;4.18;;;9.60;69.00;;;;;;5039771;28;20418;-77
2023/01/30 12:53:15;;;;;;;19.10;3.92;;;9.80;69.00;;;;;;5039601;28;20021;-78
2023/01/30 12:55:59;;;;;;;16.42;4.07;;;9.70;69.10;;;;;;5040953;28;20044;-76
2023/01/30 12:58:47;;;;;;;18.77;3.45;;;9.60;68.20;;;;;;5057305;28;20025;-77
2023/01/30 13:01:28;;;;;;;17.10;3.33;;;9.50;69.20;;;;;;5055788;28;20040;-76
2023/01/30 13:04:12;;;;;;;20.70;3.85;;;9.60;69.90;;;;;;5057243;28;20044;-78
2023/01/30 13:06:52;;;;;;;19.33;3.78;;;9.70;69.20;;;;;;5041464;28;20045;-76
2023/01/30 13:09:54;;;;;;;16.08;4.57;;;9.70;68.20;;;;;;5035942;28;20032;-76
2023/01/30 13:12:30;;;;;;;13.45;3.30;;;9.80;68.20;;;;;;5036459;28;20037;-77